Terminal Aerodrome Forecast
Issued by NWS Anchorage, AK

Home | Current Version | Previous Version | Text Only | Print | Product List | Glossary On
Versions: 1 2 3 4 5 6 7 8 9 10 11 12 13 14 15 16 17 18 19 20 21 22 23 24 25 26 27 28 29 30 31 32 33 34 35 36
000
FTAK31 PANC 220530
TAFANC
TAF
PANC 220530Z 2206/2312 33003KT P6SM VCSH SCT012 BKN060
      TEMPO 2208/2212 BKN012
     FM221200 VRB03KT P6SM VCSH BKN012
     FM221800 VRB05KT 5SM -SN BR SCT015 BKN025
     FM230300 VRB03KT P6SM VCSH BKN035=

USA.gov is the U.S. government's official web portal to all federal, state and local government web resources and services.